Time,TemperatureF,DewpointF,PressureIn,WindDirection,WindDirectionDegrees,WindSpeedMPH,WindSpeedGustMPH,Humidity,HourlyPrecipIn,Conditions,Clouds,dailyrainin,SoftwareType,DateUTC
2013-03-01 00:01:00,38.0,38.0,30.30,South,180,0.0,0.0,100,0.00,,,0.17,,2013-03-01 08:01:00,
2013-03-01 00:11:00,38.0,38.0,30.30,South,180,0.0,0.0,100,0.00,,,0.17,,2013-03-01 08:11:00,
2013-03-01 00:21:00,38.0,38.0,30.31,South,180,0.0,0.0,100,0.00,,,0.17,,2013-03-01 08:21:00,
2013-03-01 00:32:00,38.0,38.0,30.31,South,180,0.0,0.0,100,0.00,,,0.17,,2013-03-01 08:32:00,
2013-03-01 00:42:00,38.0,38.0,30.31,South,180,0.0,0.0,100,0.00,,,0.17,,2013-03-01 08:42:00,
2013-03-01 00:52:00,38.0,38.0,30.32,South,180,0.0,0.0,100,0.00,,,0.17,,2013-03-01 08:52:00,
2013-03-01 01:01:00,38.0,38.0,30.32,South,180,0.0,0.0,100,0.00,,,0.17,,2013-03-01 09:01:00,
2013-03-01 01:11:00,38.0,38.0,30.32,South,180,0.0,0.0,100,0.00,,,0.17,,2013-03-01 09:11:00,
2013-03-01 01:21:00,38.0,38.0,30.33,South,180,0.0,0.0,100,0.00,,,0.17,,2013-03-01 09:21:00,
2013-03-01 01:31:00,37.0,37.0,30.32,South,180,0.0,0.0,100,0.00,,,0.17,,2013-03-01 09:31:00,
2013-03-01 01:42:00,37.0,37.0,30.32,South,180,0.0,0.0,100,0.00,,,0.17,,2013-03-01 09:42:00,
2013-03-01 01:51:00,34.0,34.0,30.32,South,180,0.0,0.0,100,0.00,,,0.17,,2013-03-01 09:51:00,
2013-03-01 02:01:00,40.0,40.0,30.32,South,180,0.0,0.0,100,0.00,,,0.17,,2013-03-01 10:01:00,
2013-03-01 02:11:00,40.0,40.0,30.31,South,180,0.0,0.0,100,0.00,,,0.17,,2013-03-01 10:11:00,
2013-03-01 02:21:00,40.0,40.0,30.31,South,180,0.0,0.0,100,0.00,,,0.17,,2013-03-01 10:21:00,
2013-03-01 02:31:00,40.0,40.0,30.31,South,180,0.0,0.0,100,0.00,,,0.17,,2013-03-01 10:31:00,
2013-03-01 02:41:00,40.0,40.0,30.31,South,180,0.0,0.0,100,0.00,,,0.17,,2013-03-01 10:41:00,
2013-03-01 02:51:00,35.0,35.0,30.29,South,180,0.0,0.0,100,0.00,,,0.17,,2013-03-01 10:51:00,
2013-03-01 03:01:00,35.0,35.0,30.29,South,180,0.0,0.0,100,0.00,,,0.17,,2013-03-01 11:01:00,
2013-03-01 03:11:00,35.0,35.0,30.29,South,180,0.0,0.0,100,0.00,,,0.17,,2013-03-01 11:11:00,
2013-03-01 03:22:00,36.0,36.0,30.28,South,180,0.0,0.0,100,0.00,,,0.17,,2013-03-01 11:22:00,
2013-03-01 03:31:00,36.0,36.0,30.28,South,180,0.0,0.0,100,0.00,,,0.17,,2013-03-01 11:31:00,
2013-03-01 03:41:00,36.0,36.0,30.28,South,180,0.0,0.0,100,0.00,,,0.17,,2013-03-01 11:41:00,
2013-03-01 03:52:00,36.0,36.0,30.28,South,180,0.0,0.0,100,0.00,,,0.17,,2013-03-01 11:52:00,
2013-03-01 04:01:00,36.0,36.0,30.29,South,180,0.0,0.0,100,0.00,,,0.17,,2013-03-01 12:01:00,
2013-03-01 04:11:00,36.0,36.0,30.29,South,180,0.0,0.0,100,0.00,,,0.17,,2013-03-01 12:11:00,
2013-03-01 04:21:00,36.0,36.0,30.29,South,180,0.0,0.0,100,0.00,,,0.17,,2013-03-01 12:21:00,
2013-03-01 04:32:00,36.0,36.0,30.29,South,180,0.0,0.0,100,0.00,,,0.17,,2013-03-01 12:32:00,
2013-03-01 04:42:00,36.0,36.0,30.29,South,180,0.0,0.0,100,0.00,,,0.17,,2013-03-01 12:42:00,
2013-03-01 04:52:00,36.0,36.0,30.29,South,180,0.0,0.0,100,0.00,,,0.17,,2013-03-01 12:52:00,
2013-03-01 05:01:00,36.0,36.0,30.29,South,180,0.0,0.0,100,0.00,,,0.17,,2013-03-01 13:01:00,
2013-03-01 05:11:00,36.0,36.0,30.29,South,180,0.0,0.0,100,0.00,,,0.17,,2013-03-01 13:11:00,
2013-03-01 05:21:00,36.0,36.0,30.29,South,180,0.0,0.0,100,0.00,,,0.17,,2013-03-01 13:21:00,
2013-03-01 05:32:00,36.0,36.0,30.29,South,180,0.0,0.0,100,0.00,,,0.15,,2013-03-01 13:32:00,
2013-03-01 05:41:00,36.0,36.0,30.29,South,180,0.0,0.0,100,0.00,,,0.15,,2013-03-01 13:41:00,
2013-03-01 05:51:00,36.0,36.0,30.28,South,180,0.0,0.0,100,0.00,,,0.13,,2013-03-01 13:51:00,
2013-03-01 06:01:00,36.0,36.0,30.28,South,180,0.0,0.0,100,0.00,,,0.12,,2013-03-01 14:01:00,
2013-03-01 06:11:00,36.0,36.0,30.28,South,180,0.0,0.0,100,0.00,,,0.12,,2013-03-01 14:11:00,
2013-03-01 06:21:00,36.0,36.0,30.28,South,180,0.0,0.0,100,0.00,,,0.11,,2013-03-01 14:21:00,
2013-03-01 06:32:00,36.0,36.0,30.28,South,180,0.0,0.0,100,0.00,,,0.11,,2013-03-01 14:32:00,
2013-03-01 06:41:00,36.0,36.0,30.28,South,180,0.0,0.0,100,0.00,,,0.11,,2013-03-01 14:41:00,
2013-03-01 06:52:00,36.0,36.0,30.28,South,180,0.0,0.0,100,0.00,,,0.11,,2013-03-01 14:52:00,
2013-03-01 07:01:00,36.0,36.0,30.29,South,180,0.0,0.0,100,0.00,,,0.11,,2013-03-01 15:01:00,
2013-03-01 07:11:00,36.0,36.0,30.28,South,180,0.0,0.0,100,0.00,,,0.11,,2013-03-01 15:11:00,
2013-03-01 07:21:00,36.0,36.0,30.28,South,180,0.0,0.0,100,0.00,,,0.11,,2013-03-01 15:21:00,
2013-03-01 07:31:00,36.0,36.0,30.28,South,180,0.0,0.0,100,0.00,,,0.11,,2013-03-01 15:31:00,
2013-03-01 07:51:00,36.0,36.0,30.29,South,180,0.0,0.0,100,0.00,,,0.11,,2013-03-01 15:51:00,
2013-03-01 08:01:00,36.0,36.0,30.29,South,180,0.0,0.0,100,0.00,,,0.11,,2013-03-01 16:01:00,
2013-03-01 08:21:00,36.0,36.0,30.29,South,180,0.0,0.0,100,0.00,,,0.11,,2013-03-01 16:21:00,
2013-03-01 08:31:00,36.0,36.0,30.29,South,180,0.0,0.0,100,0.00,,,0.11,,2013-03-01 16:31:00,
2013-03-01 08:41:00,36.0,36.0,30.29,South,180,0.0,0.0,100,0.00,,,0.11,,2013-03-01 16:41:00,
2013-03-01 08:51:00,36.0,36.0,30.29,South,180,0.0,0.0,100,0.00,,,0.11,,2013-03-01 16:51:00,
2013-03-01 09:01:00,36.0,36.0,30.29,South,180,0.0,0.0,100,0.00,,,0.11,,2013-03-01 17:01:00,
2013-03-01 09:11:00,36.0,36.0,30.29,South,180,0.0,0.0,100,0.00,,,0.11,,2013-03-01 17:11:00,
2013-03-01 09:21:00,36.0,36.0,30.29,South,180,0.0,0.0,100,0.00,,,0.11,,2013-03-01 17:21:00,
2013-03-01 09:31:00,36.0,36.0,30.30,SW,225,12.0,14.0,100,0.00,,,0.11,,2013-03-01 17:31:00,
2013-03-01 09:41:00,36.0,36.0,30.30,SSW,203,9.0,15.0,100,0.00,,,0.11,,2013-03-01 17:41:00,
2013-03-01 09:52:00,36.0,36.0,30.30,SSW,203,9.0,15.0,100,0.00,,,0.11,,2013-03-01 17:52:00,
2013-03-01 10:01:00,36.0,36.0,30.31,SSW,203,9.0,18.0,100,0.00,,,0.11,,2013-03-01 18:01:00,
2013-03-01 10:21:00,36.0,36.0,30.30,SSW,203,14.0,17.0,100,0.00,,,0.11,,2013-03-01 18:21:00,
2013-03-01 10:31:00,36.0,36.0,30.30,SSW,203,16.0,18.0,100,0.00,,,0.11,,2013-03-01 18:31:00,
2013-03-01 10:41:00,36.0,36.0,30.31,SSW,203,16.0,20.0,100,0.00,,,0.11,,2013-03-01 18:41:00,
2013-03-01 10:52:00,36.0,36.0,30.31,SSW,203,16.0,20.0,100,0.00,,,0.11,,2013-03-01 18:52:00,
2013-03-01 11:01:00,36.0,36.0,30.32,SSW,203,13.0,21.0,100,0.00,,,0.11,,2013-03-01 19:01:00,
2013-03-01 11:21:00,36.0,36.0,30.31,SSW,203,16.0,17.0,100,0.00,,,0.11,,2013-03-01 19:21:00,
2013-03-01 11:31:00,36.0,36.0,30.31,SSW,203,15.0,18.0,100,0.00,,,0.11,,2013-03-01 19:31:00,
2013-03-01 11:51:00,36.0,36.0,30.31,South,180,14.0,18.0,100,0.00,,,0.11,,2013-03-01 19:51:00,
2013-03-01 12:01:00,36.0,36.0,30.31,SSW,203,15.0,21.0,100,0.00,,,0.11,,2013-03-01 20:01:00,
2013-03-01 12:31:00,36.0,36.0,30.31,SSW,203,16.0,24.0,100,0.00,,,0.11,,2013-03-01 20:31:00,
2013-03-01 12:51:00,36.0,36.0,30.31,SSW,203,14.0,20.0,100,0.00,,,0.11,,2013-03-01 20:51:00,
2013-03-01 13:01:00,36.0,36.0,30.31,SSW,203,12.0,18.0,100,0.00,,,0.11,,2013-03-01 21:01:00,
2013-03-01 13:11:00,36.0,36.0,30.31,SW,225,15.0,20.0,100,0.00,,,0.09,,2013-03-01 21:11:00,
2013-03-01 13:31:00,36.0,36.0,30.31,SW,225,14.0,15.0,100,0.00,,,0.09,,2013-03-01 21:31:00,
2013-03-01 13:41:00,36.0,36.0,30.31,SW,225,12.0,13.0,100,0.00,,,0.08,,2013-03-01 21:41:00,
2013-03-01 14:01:00,36.0,36.0,30.31,SSW,203,14.0,17.0,100,0.00,,,0.07,,2013-03-01 22:01:00,
2013-03-01 14:11:00,36.0,36.0,30.31,SSW,203,12.0,18.0,100,0.00,,,0.07,,2013-03-01 22:11:00,
2013-03-01 14:31:00,36.0,36.0,30.31,SSW,203,12.0,12.0,100,0.00,,,0.05,,2013-03-01 22:31:00,
2013-03-01 14:51:00,36.0,36.0,30.31,SSW,203,10.0,15.0,100,0.00,,,0.05,,2013-03-01 22:51:00,
2013-03-01 15:01:00,36.0,36.0,30.31,SSW,203,10.0,15.0,100,0.00,,,0.04,,2013-03-01 23:01:00,
2013-03-01 15:21:00,36.0,36.0,30.32,SW,225,13.0,17.0,100,0.00,,,0.04,,2013-03-01 23:21:00,
2013-03-01 15:31:00,36.0,36.0,30.32,SSW,203,10.0,16.0,100,0.00,,,0.03,,2013-03-01 23:31:00,
2013-03-01 15:52:00,36.0,36.0,30.32,SW,225,9.0,20.0,100,0.00,,,0.03,,2013-03-01 23:52:00,
2013-03-01 16:01:00,36.0,36.0,30.32,SSW,203,10.0,14.0,100,0.00,,,0.03,,2013-03-02 00:01:00,
2013-03-01 16:21:00,36.0,36.0,30.32,SSW,203,9.0,18.0,100,0.00,,,0.02,,2013-03-02 00:21:00,
2013-03-01 16:31:00,36.0,36.0,30.32,South,180,10.0,14.0,100,0.00,,,0.02,,2013-03-02 00:31:00,
2013-03-01 16:41:00,36.0,36.0,30.32,SSW,203,8.0,13.0,100,0.00,,,0.01,,2013-03-02 00:41:00,
2013-03-01 16:52:00,36.0,36.0,30.32,SSW,203,8.0,13.0,100,0.00,,,0.01,,2013-03-02 00:52:00,
2013-03-01 17:01:00,36.0,36.0,30.32,SSW,203,8.0,15.0,100,0.00,,,0.01,,2013-03-02 01:01:00,
2013-03-01 17:11:00,36.0,36.0,30.32,SSW,203,8.0,9.0,100,0.00,,,0.00,,2013-03-02 01:11:00,
2013-03-01 17:31:00,36.0,36.0,30.32,South,180,8.0,8.0,100,0.00,,,0.00,,2013-03-02 01:31:00,
2013-03-01 17:51:00,36.0,36.0,30.31,South,180,7.0,8.0,100,0.00,,,0.00,,2013-03-02 01:51:00,
2013-03-01 18:01:00,36.0,36.0,30.31,South,180,7.0,8.0,100,0.00,,,0.00,,2013-03-02 02:01:00,
2013-03-01 18:21:00,36.0,36.0,30.31,SSW,203,9.0,9.0,100,0.00,,,0.00,,2013-03-02 02:21:00,
2013-03-01 18:31:00,36.0,36.0,30.30,South,180,6.0,7.0,100,0.00,,,0.00,,2013-03-02 02:31:00,
2013-03-01 18:52:00,36.0,36.0,30.30,SW,225,5.0,7.0,100,0.00,,,0.00,,2013-03-02 02:52:00,
2013-03-01 19:01:00,36.0,36.0,30.30,SSW,203,7.0,7.0,100,0.00,,,0.00,,2013-03-02 03:01:00,
2013-03-01 19:11:00,36.0,36.0,30.30,South,180,6.0,7.0,100,0.00,,,0.00,,2013-03-02 03:11:00,
2013-03-01 19:21:00,36.0,36.0,30.30,South,180,6.0,7.0,100,0.00,,,0.00,,2013-03-02 03:21:00,
2013-03-01 19:32:00,36.0,36.0,30.30,SSW,203,7.0,7.0,100,0.00,,,0.00,,2013-03-02 03:32:00,
2013-03-01 19:52:00,36.0,36.0,30.30,SSW,203,6.0,7.0,100,0.00,,,0.00,,2013-03-02 03:52:00,
2013-03-01 20:01:00,36.0,36.0,30.30,South,180,7.0,9.0,100,0.00,,,0.00,,2013-03-02 04:01:00,
2013-03-01 20:11:00,36.0,36.0,30.31,South,180,7.0,9.0,100,0.00,,,0.00,,2013-03-02 04:11:00,
2013-03-01 20:21:00,36.0,36.0,30.31,South,180,7.0,9.0,100,0.00,,,0.00,,2013-03-02 04:21:00,
2013-03-01 20:31:00,36.0,36.0,30.30,SSW,203,8.0,9.0,100,0.00,,,0.00,,2013-03-02 04:31:00,
2013-03-01 20:51:00,36.0,36.0,30.30,SSW,203,8.0,9.0,100,0.00,,,0.00,,2013-03-02 04:51:00,
2013-03-01 21:01:00,36.0,36.0,30.30,South,180,10.0,13.0,100,0.00,,,0.00,,2013-03-02 05:01:00,
2013-03-01 21:22:00,36.0,36.0,30.30,South,180,10.0,12.0,100,0.00,,,0.00,,2013-03-02 05:22:00,
2013-03-01 21:31:00,36.0,36.0,30.29,South,180,12.0,12.0,100,0.00,,,0.00,,2013-03-02 05:31:00,
2013-03-01 21:51:00,36.0,36.0,30.29,North,0,7.0,12.0,100,0.00,,,0.00,,2013-03-02 05:51:00,
2013-03-01 22:01:00,36.0,36.0,30.29,SSW,203,5.0,12.0,100,0.00,,,0.00,,2013-03-02 06:01:00,
2013-03-01 22:21:00,36.0,36.0,30.29,North,0,0.0,0.0,100,0.00,,,0.00,,2013-03-02 06:21:00,
2013-03-01 22:31:00,36.0,36.0,30.29,North,0,0.0,0.0,100,0.00,,,0.00,,2013-03-02 06:31:00,
2013-03-01 22:51:00,36.0,36.0,30.28,SSW,203,0.0,0.0,100,0.00,,,0.00,,2013-03-02 06:51:00,
2013-03-01 23:01:00,36.0,36.0,30.28,North,0,0.0,0.0,100,0.00,,,0.00,,2013-03-02 07:01:00,
2013-03-01 23:11:00,36.0,36.0,30.28,South,180,8.0,10.0,100,0.00,,,0.00,,2013-03-02 07:11:00,
2013-03-01 23:21:00,36.0,36.0,30.28,South,180,8.0,10.0,100,0.00,,,0.00,,2013-03-02 07:21:00,
2013-03-01 23:32:00,36.0,36.0,30.27,South,180,8.0,10.0,100,0.00,,,0.00,,2013-03-02 07:32:00,
2013-03-01 23:51:00,36.0,36.0,30.27,South,180,7.0,8.0,100,0.00,,,0.00,,2013-03-02 07:51:00,